createdAt,value
2019-02-16T00:04:06.318Z,26.23
2019-02-16T00:10:10.549Z,26.27
2019-02-16T00:16:14.837Z,26.87
2019-02-16T00:22:19.109Z,28.02
2019-02-16T00:28:23.339Z,28.23
2019-02-16T00:34:27.669Z,26.17
2019-02-16T00:40:31.908Z,31.00
2019-02-16T00:46:36.293Z,28.97
2019-02-16T00:52:40.494Z,30.17
2019-02-16T00:58:44.825Z,27.57
2019-02-16T01:04:49.071Z,28.30
2019-02-16T01:10:53.465Z,29.80
2019-02-16T01:16:57.728Z,27.82
2019-02-16T01:23:02.102Z,31.10
2019-02-16T01:29:06.412Z,28.17
2019-02-16T01:35:10.909Z,25.33
2019-02-16T01:41:15.294Z,31.90
2019-02-16T01:47:19.597Z,32.57
2019-02-16T01:53:26.195Z,28.73
2019-02-16T01:59:30.534Z,29.37
2019-02-16T02:05:34.916Z,28.10
2019-02-16T02:11:39.419Z,33.75
2019-02-16T02:17:43.963Z,30.80
2019-02-16T02:23:48.302Z,29.70
2019-02-16T02:29:52.736Z,29.15
2019-02-16T02:35:57.113Z,27.40
2019-02-16T02:42:01.535Z,29.37
2019-02-16T02:48:05.884Z,28.52
2019-02-16T02:54:10.279Z,26.62
2019-02-16T03:00:14.819Z,30.90
2019-02-16T03:06:19.267Z,29.23
2019-02-16T03:12:23.722Z,28.47
2019-02-16T03:18:28.068Z,29.23
2019-02-16T03:24:32.515Z,31.42
2019-02-16T03:31:00.642Z,29.87
2019-02-16T03:37:46.075Z,32.40
2019-02-16T03:43:50.485Z,33.07
2019-02-16T03:49:54.885Z,34.97
2019-02-16T03:56:01.673Z,29.40
2019-02-16T04:02:06.010Z,37.70
2019-02-16T04:08:10.384Z,28.90
2019-02-16T04:14:14.904Z,31.60
2019-02-16T04:20:19.262Z,30.13
2019-02-16T04:26:23.688Z,29.50
2019-02-16T04:32:28.072Z,27.97
2019-02-16T04:38:32.280Z,28.73
2019-02-16T04:44:36.794Z,31.17
2019-02-16T04:50:41.033Z,31.47
2019-02-16T04:56:45.293Z,31.43
2019-02-16T05:02:49.545Z,32.13
2019-02-16T05:08:53.825Z,30.27
2019-02-16T05:14:59.018Z,31.10
2019-02-16T05:21:03.344Z,33.57
2019-02-16T05:27:07.638Z,33.57
2019-02-16T05:33:11.959Z,34.10
2019-02-16T05:39:16.187Z,30.73
2019-02-16T05:45:20.673Z,35.53
2019-02-16T05:51:24.897Z,32.70
2019-02-16T05:57:29.117Z,41.20
2019-02-16T06:03:33.434Z,34.90
2019-02-16T06:09:37.678Z,33.30
2019-02-16T06:15:41.879Z,35.67
2019-02-16T06:21:48.669Z,37.10
2019-02-16T06:27:52.969Z,33.57
2019-02-16T06:33:57.175Z,42.37
2019-02-16T06:40:01.521Z,36.73
2019-02-16T06:46:05.764Z,39.47
2019-02-16T06:52:10.944Z,44.43
2019-02-16T06:58:15.251Z,42.67
2019-02-16T07:04:19.595Z,46.83
2019-02-16T07:10:23.921Z,47.33
2019-02-16T07:17:05.628Z,38.67
2019-02-16T07:23:09.946Z,40.37
2019-02-16T07:29:14.376Z,36.80
2019-02-16T07:35:18.722Z,42.97
2019-02-16T07:41:26.048Z,37.73
2019-02-16T07:47:49.447Z,38.17
2019-02-16T07:54:03.926Z,40.07
2019-02-16T08:00:28.419Z,37.00
2019-02-16T08:06:51.709Z,36.30
2019-02-16T08:13:11.521Z,42.07
2019-02-16T08:19:34.794Z,38.33
2019-02-16T08:25:58.157Z,38.77
2019-02-16T08:32:19.849Z,39.37
2019-02-16T08:38:52.350Z,39.03
2019-02-16T08:45:24.587Z,36.70
2019-02-16T08:51:47.875Z,37.35
2019-02-16T08:58:06.158Z,38.88
2019-02-16T09:04:24.407Z,36.25
2019-02-16T09:10:47.950Z,36.60
2019-02-16T09:17:13.254Z,38.75
2019-02-16T09:23:42.268Z,36.73
2019-02-16T09:30:08.541Z,32.80
2019-02-16T09:36:23.921Z,36.73
2019-02-16T09:42:43.875Z,37.48
2019-02-16T09:49:02.042Z,34.30
2019-02-16T09:55:24.552Z,34.18
2019-02-16T10:01:46.578Z,32.42
2019-02-16T10:08:02.052Z,29.60
2019-02-16T10:14:30.134Z,41.40
2019-02-16T10:20:51.290Z,40.63
2019-02-16T10:27:20.597Z,32.90
2019-02-16T10:33:40.884Z,25.48
2019-02-16T10:40:13.498Z,28.50
2019-02-16T10:46:36.751Z,28.10
2019-02-16T10:53:00.044Z,31.25
2019-02-16T10:59:32.644Z,19.52
2019-02-16T11:05:51.447Z,27.02
2019-02-16T11:12:18.629Z,29.37
2019-02-16T11:18:57.220Z,25.72
2019-02-16T11:25:20.453Z,22.73
2019-02-16T11:31:42.715Z,24.67
2019-02-16T11:38:09.049Z,26.80
2019-02-16T11:44:41.072Z,27.98
2019-02-16T11:51:00.876Z,28.62
2019-02-16T11:57:33.492Z,30.05
2019-02-16T12:03:46.553Z,25.43
2019-02-16T12:10:08.208Z,25.80
2019-02-16T12:16:34.752Z,25.90
2019-02-16T12:23:07.078Z,23.30
2019-02-16T12:29:25.507Z,27.50
2019-02-16T12:35:43.578Z,28.70
2019-02-16T12:42:13.237Z,26.40
2019-02-16T12:48:25.115Z,26.55
2019-02-16T12:55:03.379Z,26.33
2019-02-16T13:01:25.558Z,26.05
2019-02-16T13:07:37.627Z,25.45
2019-02-16T13:14:04.112Z,15.18
2019-02-16T13:20:20.534Z,12.63
2019-02-16T13:26:53.033Z,23.45
2019-02-16T13:33:17.536Z,26.33
2019-02-16T13:39:32.656Z,22.25
2019-02-16T13:45:44.344Z,15.72
2019-02-16T13:52:19.678Z,26.35
2019-02-16T13:58:48.998Z,27.07
2019-02-16T14:05:15.495Z,24.85
2019-02-16T14:11:42.120Z,23.77
2019-02-16T14:17:45.490Z,24.37
2019-02-16T14:23:49.896Z,26.02
2019-02-16T14:29:57.308Z,24.72
2019-02-16T14:36:01.551Z,27.95
2019-02-16T14:42:05.820Z,25.88
2019-02-16T14:48:10.090Z,31.57
2019-02-16T14:54:14.647Z,29.02
2019-02-16T15:00:20.412Z,26.40
2019-02-16T15:06:24.864Z,26.97
2019-02-16T15:12:29.333Z,28.52
2019-02-16T15:18:33.705Z,28.77
2019-02-16T15:24:38.460Z,30.12
2019-02-16T15:30:43.153Z,31.20
2019-02-16T15:36:47.594Z,30.23
2019-02-16T15:42:51.837Z,32.23
2019-02-16T15:48:56.533Z,29.70
2019-02-16T15:55:00.889Z,28.27
2019-02-16T16:01:05.487Z,26.25
2019-02-16T16:07:14.735Z,29.20
2019-02-16T16:13:47.314Z,45.12
2019-02-16T16:19:59.443Z,34.90
2019-02-16T16:26:23.910Z,45.12
2019-02-16T16:32:41.929Z,34.58
2019-02-16T16:39:17.562Z,33.40
2019-02-16T16:45:40.911Z,28.40
2019-02-16T16:52:04.291Z,28.23
2019-02-16T16:58:26.609Z,30.00
2019-02-16T17:04:40.438Z,29.72
2019-02-16T17:10:54.646Z,31.68
2019-02-16T17:17:16.918Z,29.82
2019-02-16T17:23:32.923Z,35.00
2019-02-16T17:29:59.546Z,33.65
2019-02-16T17:36:42.193Z,36.03
2019-02-16T17:42:53.799Z,36.28
2019-02-16T17:49:18.598Z,38.15
2019-02-16T17:55:40.890Z,35.38
2019-02-16T18:02:02.766Z,40.08
2019-02-16T18:08:28.837Z,37.00
2019-02-16T18:14:51.281Z,34.75
2019-02-16T18:21:10.884Z,39.78
2019-02-16T18:27:35.640Z,40.95
2019-02-16T18:34:06.098Z,41.77
2019-02-16T18:40:28.017Z,43.10
2019-02-16T18:46:38.928Z,38.98
2019-02-16T18:53:00.974Z,44.23
2019-02-16T18:59:13.321Z,42.40
2019-02-16T19:05:30.832Z,47.08
2019-02-16T19:11:59.982Z,46.83
2019-02-16T19:18:23.574Z,46.45
2019-02-16T19:24:37.968Z,42.85
2019-02-16T19:31:07.102Z,43.80
2019-02-16T19:37:30.393Z,45.50
2019-02-16T19:43:43.644Z,42.45
2019-02-16T19:50:22.222Z,49.48
2019-02-16T19:56:36.475Z,49.18
2019-02-16T20:03:05.559Z,47.43
2019-02-16T20:09:31.043Z,49.03
2019-02-16T20:16:03.189Z,45.17
2019-02-16T20:22:19.722Z,45.15
2019-02-16T20:28:41.674Z,43.28
2019-02-16T20:35:14.535Z,45.30
2019-02-16T20:41:40.981Z,45.48
2019-02-16T20:48:02.772Z,46.15
2019-02-16T20:54:26.098Z,43.08
2019-02-16T21:00:38.489Z,43.92
2019-02-16T21:07:01.030Z,46.95
2019-02-16T21:13:20.173Z,65.47
2019-02-16T21:19:52.439Z,42.43
2019-02-16T21:26:37.102Z,41.73
2019-02-16T21:32:46.914Z,45.95
2019-02-16T21:39:13.201Z,46.05
2019-02-16T21:45:48.838Z,42.38
2019-02-16T21:52:10.063Z,43.85
2019-02-16T21:58:48.352Z,44.42
2019-02-16T22:05:17.827Z,45.20
2019-02-16T22:11:47.325Z,44.05
2019-02-16T22:17:51.730Z,42.10
2019-02-16T22:23:55.966Z,45.38
2019-02-16T22:30:00.238Z,41.90
2019-02-16T22:36:04.463Z,44.53
2019-02-16T22:42:08.732Z,46.65
2019-02-16T22:48:12.975Z,44.13
2019-02-16T22:54:17.383Z,44.45
2019-02-16T23:00:39.562Z,44.85
2019-02-16T23:06:43.857Z,43.70
2019-02-16T23:12:48.336Z,44.50
2019-02-16T23:18:52.652Z,43.50
2019-02-16T23:24:56.940Z,45.08
2019-02-16T23:31:01.226Z,41.20
2019-02-16T23:37:05.417Z,46.70
2019-02-16T23:43:09.670Z,45.83
2019-02-16T23:49:13.878Z,47.43
2019-02-16T23:55:18.106Z,44.48
